Time;durP1;ratioP1;P1;durP2;ratioP2;P2;SDS_P1;SDS_P2;PMS_P1;PMS_P2;Temp;Humidity;BMP_temperature;BMP_pressure;BME280_temperature;BME280_humidity;BME280_pressure;Samples;Min_cycle;Max_cycle;Signal;HPM_P1;HPM_P2
2023/10/01 00:00:38;;;;;;;12.25;5.07;;;;;;;17.42;68.62;102459.50;7394811;19;20472;-64
2023/10/01 00:03:06;;;;;;;14.40;5.20;;;;;;;17.47;68.61;102459.16;7396822;19;20043;-64
2023/10/01 00:05:33;;;;;;;14.45;5.07;;;;;;;17.48;68.74;102452.84;7396406;19;20349;-64
2023/10/01 00:08:02;;;;;;;10.10;4.97;;;;;;;17.40;69.00;102439.16;7395113;19;20022;-64
2023/10/01 00:10:29;;;;;;;12.30;4.70;;;;;;;17.32;69.38;102431.69;7396543;19;20030;-64
2023/10/01 00:12:58;;;;;;;14.05;5.03;;;;;;;17.34;69.46;102424.41;7396464;19;20043;-64
2023/10/01 00:15:27;;;;;;;13.60;5.20;;;;;;;17.38;69.11;102420.53;7393981;19;20046;-64
2023/10/01 00:17:55;;;;;;;10.93;5.03;;;;;;;17.27;69.12;102420.50;7395473;19;20043;-64
2023/10/01 00:20:25;;;;;;;11.02;5.20;;;;;;;17.22;69.55;102423.53;7394230;19;20094;-64
2023/10/01 00:23:06;;;;;;;11.43;5.25;;;;;;;17.21;69.67;102416.47;7395558;19;20019;-64
2023/10/01 00:25:38;;;;;;;9.35;4.55;;;;;;;17.19;69.94;102406.81;7395687;19;20027;-64
2023/10/01 00:28:07;;;;;;;12.32;4.88;;;;;;;17.21;69.70;102408.44;7394900;19;20043;-65
2023/10/01 00:30:36;;;;;;;12.13;4.78;;;;;;;17.22;69.21;102411.97;7395529;19;20026;-65
2023/10/01 00:33:06;;;;;;;9.38;4.50;;;;;;;17.23;69.45;102416.34;7395983;19;20026;-65
2023/10/01 00:35:39;;;;;;;13.93;5.55;;;;;;;17.20;69.74;102421.91;7391944;19;20356;-65
2023/10/01 00:38:10;;;;;;;10.38;5.00;;;;;;;17.22;69.72;102425.34;7394747;19;20029;-66
2023/10/01 00:40:42;;;;;;;12.48;5.10;;;;;;;17.21;69.47;102420.97;7393688;19;20014;-65
2023/10/01 00:43:11;;;;;;;10.68;4.90;;;;;;;17.24;69.66;102432.28;7393915;19;20014;-65
2023/10/01 00:45:39;;;;;;;12.70;5.47;;;;;;;17.28;69.35;102423.06;7394870;19;20018;-64
2023/10/01 00:48:14;;;;;;;13.30;5.15;;;;;;;17.25;69.63;102419.75;7393844;19;20034;-64
2023/10/01 00:50:42;;;;;;;12.73;5.22;;;;;;;17.22;69.53;102415.47;7395421;19;20046;-64
2023/10/01 00:53:10;;;;;;;13.68;5.88;;;;;;;17.27;69.34;102425.84;7393494;19;20086;-64
2023/10/01 00:55:39;;;;;;;13.30;4.78;;;;;;;17.22;69.66;102438.72;7393029;19;20015;-64
2023/10/01 00:58:09;;;;;;;10.02;5.15;;;;;;;17.23;69.44;102453.81;7394057;19;20031;-64
2023/10/01 01:00:37;;;;;;;12.43;5.60;;;;;;;17.24;69.45;102445.66;7394717;19;20022;-64
2023/10/01 01:05:37;;;;;;;12.63;5.53;;;;;;;17.28;69.41;102428.44;7394166;19;20035;-65
2023/10/01 01:08:07;;;;;;;12.65;5.22;;;;;;;17.24;69.15;102405.50;7393164;19;20375;-65
2023/10/01 01:10:42;;;;;;;12.50;5.30;;;;;;;17.29;69.13;102398.00;7394228;19;20010;-65
2023/10/01 01:13:16;;;;;;;15.25;5.47;;;;;;;17.15;69.72;102397.31;7393953;19;20038;-65
2023/10/01 01:15:46;;;;;;;13.07;6.13;;;;;;;17.16;69.71;102401.69;7392476;19;20022;-65
2023/10/01 01:18:15;;;;;;;11.27;5.03;;;;;;;17.22;69.59;102398.56;7393139;19;20019;-65
2023/10/01 01:20:45;;;;;;;15.45;5.97;;;;;;;17.19;69.69;102405.00;7393627;19;20491;-64
2023/10/01 01:23:18;;;;;;;11.65;5.25;;;;;;;17.22;69.78;102407.44;7393853;19;20022;-64
2023/10/01 01:25:46;;;;;;;12.13;5.70;;;;;;;17.23;69.45;102416.34;7392117;19;20022;-64
2023/10/01 01:28:15;;;;;;;14.88;6.07;;;;;;;17.26;69.33;102418.78;7391009;19;20026;-65
2023/10/01 01:30:46;;;;;;;13.40;6.30;;;;;;;17.24;69.22;102416.22;7393762;19;20018;-65
2023/10/01 01:33:20;;;;;;;14.88;5.90;;;;;;;17.24;69.35;102418.03;7393908;19;20042;-65
2023/10/01 01:35:51;;;;;;;12.90;6.50;;;;;;;17.24;69.40;102408.16;7392431;19;20039;-64
2023/10/01 01:38:20;;;;;;;12.90;5.85;;;;;;;17.24;69.37;102405.50;7391710;19;20023;-64
2023/10/01 01:40:51;;;;;;;12.38;6.00;;;;;;;17.20;69.67;102396.00;7391397;19;20026;-64
2023/10/01 01:43:22;;;;;;;14.05;6.07;;;;;;;17.18;69.39;102402.44;7393276;19;20026;-64
2023/10/01 01:46:00;;;;;;;13.27;6.40;;;;;;;17.17;69.65;102404.28;7393092;19;20032;-64
2023/10/01 01:48:31;;;;;;;11.30;5.90;;;;;;;17.13;69.73;102402.78;7391597;19;20018;-65
2023/10/01 01:51:02;;;;;;;14.38;6.60;;;;;;;17.14;69.78;102409.84;7393397;19;20054;-64
2023/10/01 01:53:41;;;;;;;13.95;5.78;;;;;;;17.20;69.52;102403.16;7393169;19;20018;-64
2023/10/01 01:56:10;;;;;;;12.32;6.00;;;;;;;17.19;69.43;102401.47;7390836;19;20027;-64
2023/10/01 01:58:43;;;;;;;13.13;5.78;;;;;;;17.18;69.45;102400.63;7391677;19;20022;-64
2023/10/01 02:03:51;;;;;;;12.60;7.03;;;;;;;17.05;69.85;102394.47;7392962;19;20014;-64
2023/10/01 02:06:27;;;;;;;12.43;6.93;;;;;;;17.04;69.79;102400.78;7392253;19;20095;-64
2023/10/01 02:08:58;;;;;;;14.68;7.50;;;;;;;16.98;69.79;102396.78;7390479;19;20019;-64
2023/10/01 02:11:32;;;;;;;16.95;7.25;;;;;;;17.00;69.77;102386.78;7392184;19;20030;-64
2023/10/01 02:14:03;;;;;;;13.40;7.15;;;;;;;17.03;69.94;102380.34;7391887;19;20081;-64
2023/10/01 02:16:38;;;;;;;13.52;7.53;;;;;;;17.06;69.57;102369.44;7392940;19;20026;-64
2023/10/01 02:19:21;;;;;;;18.13;7.85;;;;;;;17.03;69.90;102358.94;7389246;19;20029;-64
2023/10/01 02:22:00;;;;;;;12.93;6.90;;;;;;;16.97;70.01;102364.75;7392259;19;20388;-64
2023/10/01 02:24:44;;;;;;;15.45;7.65;;;;;;;16.95;70.15;102375.59;7392158;19;20026;-64
2023/10/01 02:27:15;;;;;;;14.52;7.60;;;;;;;17.00;70.18;102375.22;7392421;19;20099;-64
2023/10/01 02:30:09;;;;;;;13.70;7.25;;;;;;;16.93;70.04;102379.34;7389238;19;20418;-64
2023/10/01 02:32:35;;;;;;;13.20;7.78;;;;;;;16.90;70.52;102375.06;7391445;19;20377;-64
2023/10/01 02:35:34;;;;;;;11.07;7.60;;;;;;;16.93;70.27;102376.66;7390913;19;20025;-64
2023/10/01 02:37:54;;;;;;;12.40;7.75;;;;;;;16.90;70.52;102382.22;7391225;19;20018;-64
2023/10/01 02:40:22;;;;;;;13.70;7.70;;;;;;;16.96;70.20;102390.66;7391419;19;20089;-64
2023/10/01 02:42:49;;;;;;;16.67;9.02;;;;;;;17.00;70.19;102378.75;7396865;19;20018;-64
2023/10/01 02:45:31;;;;;;;17.75;8.98;;;;;;;17.07;69.91;102378.31;7399115;19;20018;-64
2023/10/01 02:48:16;;;;;;;13.23;8.20;;;;;;;16.99;70.26;102379.72;7398143;19;20029;-65
2023/10/01 02:50:54;;;;;;;14.73;8.40;;;;;;;17.00;70.04;102380.59;7398988;19;20035;-64
2023/10/01 02:53:23;;;;;;;14.60;8.98;;;;;;;16.97;69.98;102381.66;7398424;19;20042;-64
2023/10/01 02:55:52;;;;;;;16.30;8.32;;;;;;;16.96;69.82;102390.66;7394828;19;20047;-64
2023/10/01 02:58:32;;;;;;;14.75;8.80;;;;;;;16.98;70.14;102387.84;7396151;19;20026;-64
2023/10/01 03:01:04;;;;;;;15.98;8.55;;;;;;;16.93;70.13;102385.53;7398727;19;20487;-64
2023/10/01 03:03:32;;;;;;;15.07;8.70;;;;;;;16.84;70.25;102388.06;7398390;19;20476;-64
2023/10/01 03:06:08;;;;;;;14.48;8.90;;;;;;;16.85;70.30;102393.28;7398044;19;20015;-64
2023/10/01 03:08:59;;;;;;;15.23;9.02;;;;;;;16.77;70.38;102380.47;7396718;19;20019;-64
2023/10/01 03:11:40;;;;;;;14.70;9.35;;;;;;;16.75;70.26;102377.06;7398379;19;20026;-64
2023/10/01 03:14:18;;;;;;;13.25;8.60;;;;;;;16.75;70.51;102386.88;7398240;19;20022;-64
2023/10/01 03:16:53;;;;;;;13.38;8.45;;;;;;;16.79;70.22;102373.19;7398409;19;20027;-64
2023/10/01 03:19:27;;;;;;;15.70;8.80;;;;;;;16.73;70.21;102381.66;7395563;19;20015;-70
2023/10/01 03:24:33;;;;;;;14.73;9.20;;;;;;;16.67;70.58;102370.53;7399264;19;20035;-67
2023/10/01 03:27:12;;;;;;;15.63;9.10;;;;;;;16.66;70.58;102355.44;7395762;19;20032;-63
2023/10/01 03:29:42;;;;;;;16.20;9.40;;;;;;;16.67;70.45;102362.50;7395042;19;20014;-61
2023/10/01 03:32:28;;;;;;;18.45;9.50;;;;;;;16.64;70.53;102360.06;7398546;19;20378;-62
2023/10/01 03:34:56;;;;;;;14.77;9.60;;;;;;;16.64;70.90;102362.75;7398959;19;20022;-62
2023/10/01 03:37:27;;;;;;;14.30;9.35;;;;;;;16.57;70.50;102360.50;7399919;19;20018;-65
2023/10/01 03:40:18;;;;;;;15.20;9.77;;;;;;;16.52;70.83;102357.34;7394981;19;20018;-64
2023/10/01 03:42:51;;;;;;;14.13;9.02;;;;;;;16.40;71.63;102352.00;7399824;19;20021;-64
2023/10/01 03:45:38;;;;;;;13.30;8.77;;;;;;;16.37;71.64;102358.44;7399368;19;20018;-64
2023/10/01 03:48:19;;;;;;;15.98;9.38;;;;;;;16.30;71.79;102359.84;7397905;19;20018;-63
2023/10/01 03:50:47;;;;;;;16.95;9.63;;;;;;;16.32;71.78;102361.44;7399485;19;20085;-62
2023/10/01 03:53:18;;;;;;;16.67;10.30;;;;;;;16.33;71.73;102356.94;7397892;19;20022;-63
2023/10/01 03:55:54;;;;;;;16.88;9.30;;;;;;;16.41;71.33;102357.25;7395216;19;20022;-63
2023/10/01 03:58:26;;;;;;;15.25;9.65;;;;;;;16.38;71.32;102362.81;7397311;19;20018;-63
2023/10/01 04:00:54;;;;;;;14.80;9.50;;;;;;;16.30;71.73;102359.84;7398690;19;20010;-63
2023/10/01 04:03:22;;;;;;;16.35;10.02;;;;;;;16.32;71.53;102358.75;7398218;19;20014;-62
2023/10/01 04:05:56;;;;;;;16.80;10.23;;;;;;;16.16;71.94;102350.13;7395896;19;20390;-63
2023/10/01 04:08:25;;;;;;;16.10;9.05;;;;;;;16.18;72.10;102347.34;7396184;19;20440;-61
2023/10/01 04:10:58;;;;;;;15.13;10.07;;;;;;;16.25;71.81;102349.47;7397388;19;20024;-62
2023/10/01 04:13:27;;;;;;;15.98;9.60;;;;;;;16.24;71.67;102354.94;7398931;19;20019;-65
2023/10/01 04:15:55;;;;;;;14.05;9.40;;;;;;;16.32;71.32;102353.41;7393579;19;20026;-64
2023/10/01 04:18:28;;;;;;;15.23;9.68;;;;;;;16.33;71.21;102349.78;7394366;19;20085;-64
2023/10/01 04:23:32;;;;;;;15.88;9.98;;;;;;;16.28;71.56;102357.28;7393451;19;20031;-64
2023/10/01 04:26:08;;;;;;;;;;;;;;;15.99;72.32;102355.84;7396339;19;20408;-62
2023/10/01 04:28:43;;;;;;;14.63;9.77;;;;;;;15.98;72.70;102359.47;7393928;19;19927;-62
2023/10/01 04:31:18;;;;;;;17.27;10.27;;;;;;;16.08;72.42;102363.22;7394555;19;20028;-62
2023/10/01 04:33:48;;;;;;;14.40;9.45;;;;;;;16.22;71.69;102359.56;7395689;19;20018;-62
2023/10/01 04:36:17;;;;;;;19.13;10.40;;;;;;;16.22;71.50;102357.72;7393985;19;20019;-62
2023/10/01 04:38:51;;;;;;;15.38;9.52;;;;;;;16.29;71.64;102350.97;7393629;19;20025;-62
2023/10/01 04:41:21;;;;;;;15.57;9.90;;;;;;;16.25;71.58;102354.81;7393629;19;20030;-63
2023/10/01 04:43:55;;;;;;;14.75;9.45;;;;;;;16.20;71.52;102348.94;7394868;19;20083;-62
2023/10/01 04:46:30;;;;;;;15.57;9.60;;;;;;;16.18;71.87;102345.56;7395645;19;20340;-63
2023/10/01 04:49:07;;;;;;;18.30;10.85;;;;;;;16.17;71.73;102348.31;7391391;19;20024;-63
2023/10/01 04:51:48;;;;;;;16.30;9.50;;;;;;;16.04;72.37;102356.38;7394892;19;20043;-63
2023/10/01 04:54:17;;;;;;;13.82;8.68;;;;;;;16.05;72.27;102353.56;7394474;19;20047;-65
2023/10/01 04:56:48;;;;;;;14.50;9.90;;;;;;;16.09;71.96;102352.38;7393537;19;20026;-65
2023/10/01 04:59:16;;;;;;;14.38;9.05;;;;;;;16.08;72.09;102349.84;7393030;19;20030;-65
2023/10/01 05:01:47;;;;;;;15.38;9.23;;;;;;;16.07;72.10;102342.78;7394994;19;20547;-65
2023/10/01 05:04:15;;;;;;;15.40;10.38;;;;;;;16.05;71.76;102336.69;7392483;19;20007;-65
2023/10/01 05:06:43;;;;;;;15.77;10.02;;;;;;;16.01;71.91;102335.19;7392761;19;20042;-65
2023/10/01 05:09:14;;;;;;;17.75;10.65;;;;;;;16.04;71.81;102326.97;7392516;19;20018;-65
2023/10/01 05:11:43;;;;;;;16.10;9.80;;;;;;;15.95;72.43;102327.59;7394623;19;20498;-65
2023/10/01 05:14:12;;;;;;;16.77;9.88;;;;;;;16.04;72.00;102321.63;7392749;19;20030;-65
2023/10/01 05:16:39;;;;;;;15.63;10.35;;;;;;;16.07;71.76;102321.41;7391403;19;20029;-65
2023/10/01 05:19:10;;;;;;;17.17;10.68;;;;;;;15.99;71.95;102313.94;7391632;19;20022;-65
2023/10/01 05:21:46;;;;;;;17.17;10.38;;;;;;;16.01;71.95;102316.50;7393567;19;20014;-65
2023/10/01 05:24:31;;;;;;;19.38;11.43;;;;;;;15.96;71.93;102313.31;7393835;19;20043;-65
2023/10/01 05:27:02;;;;;;;;;;;;;;;15.83;72.01;102315.97;7395007;19;20051;-65
2023/10/01 05:29:31;;;;;;;17.67;10.95;;;;;;;15.94;72.26;102326.75;7391217;19;19927;-65
2023/10/01 05:31:59;;;;;;;17.15;11.70;;;;;;;16.08;71.47;102312.44;7393135;19;20044;-64
2023/10/01 05:34:28;;;;;;;16.00;10.73;;;;;;;16.10;71.51;102329.19;7393409;19;20503;-64
2023/10/01 05:37:08;;;;;;;14.98;10.27;;;;;;;16.14;71.12;102321.81;7390339;19;20015;-64
2023/10/01 05:39:55;;;;;;;18.10;10.80;;;;;;;16.06;71.43;102325.03;7391437;19;20014;-64
2023/10/01 05:42:28;;;;;;;16.00;11.48;;;;;;;16.02;71.72;102327.06;7391665;19;20018;-64
2023/10/01 05:44:56;;;;;;;15.95;10.20;;;;;;;16.12;71.38;102335.28;7393402;19;20047;-64
2023/10/01 05:47:41;;;;;;;15.82;10.27;;;;;;;16.11;71.24;102338.94;7393430;19;20532;-66
2023/10/01 05:50:11;;;;;;;15.70;10.90;;;;;;;16.11;71.37;102349.63;7393050;19;20022;-64
2023/10/01 05:52:40;;;;;;;16.23;11.20;;;;;;;16.20;71.24;102348.09;7392951;19;20015;-66
2023/10/01 05:55:12;;;;;;;18.70;11.60;;;;;;;16.31;70.71;102357.06;7391022;19;20377;-66
2023/10/01 05:57:40;;;;;;;16.65;11.13;;;;;;;16.36;70.65;102356.72;7392437;19;20082;-66
2023/10/01 06:00:18;;;;;;;17.65;11.73;;;;;;;16.42;70.33;102348.25;7391884;19;20085;-67
2023/10/01 06:02:47;;;;;;;16.83;11.35;;;;;;;16.29;70.69;102350.97;7392189;19;20018;-65
2023/10/01 06:05:32;;;;;;;15.90;10.55;;;;;;;16.31;70.97;102345.50;7392233;19;20029;-66
2023/10/01 06:08:12;;;;;;;18.63;11.20;;;;;;;16.36;70.52;102353.19;7391704;19;20074;-65
2023/10/01 06:11:07;;;;;;;18.15;11.77;;;;;;;16.40;70.43;102350.19;7392133;19;20035;-65
2023/10/01 06:13:39;;;;;;;17.88;11.70;;;;;;;16.36;70.54;102347.84;7391776;19;20669;-65
2023/10/01 06:16:16;;;;;;;17.42;11.50;;;;;;;16.41;70.45;102345.69;7390826;19;20014;-65
2023/10/01 06:18:52;;;;;;;15.82;11.05;;;;;;;16.46;70.33;102338.19;7390987;19;20023;-66
2023/10/01 06:21:23;;;;;;;17.60;11.48;;;;;;;16.44;70.43;102342.78;7391554;19;20014;-66
2023/10/01 06:23:52;;;;;;;21.15;11.38;;;;;;;16.46;69.96;102341.72;7391732;19;20496;-66
2023/10/01 06:26:45;;;;;;;14.73;9.98;;;;;;;16.56;69.76;102345.44;7391996;19;20015;-66
2023/10/01 06:29:14;;;;;;;;;;;;;;;16.30;70.45;102355.34;7390558;19;20675;-65
2023/10/01 06:32:01;;;;;;;18.17;11.88;;;;;;;16.36;70.80;102354.03;7392131;19;19931;-65
2023/10/01 06:34:32;;;;;;;17.48;11.63;;;;;;;16.51;70.07;102352.06;7390537;19;20019;-65
2023/10/01 06:37:01;;;;;;;18.67;12.13;;;;;;;16.56;69.86;102355.28;7390136;19;20039;-65
2023/10/01 06:39:32;;;;;;;14.90;10.75;;;;;;;16.63;69.72;102353.84;7389429;19;20018;-65
2023/10/01 06:42:18;;;;;;;18.08;10.82;;;;;;;16.63;69.50;102344.97;7391796;19;20022;-67
2023/10/01 06:44:58;;;;;;;16.65;10.70;;;;;;;16.63;69.61;102351.16;7390743;19;20730;-66
2023/10/01 06:47:26;;;;;;;15.73;10.40;;;;;;;16.66;69.66;102345.59;7391378;19;20011;-65
2023/10/01 06:52:34;;;;;;;17.77;11.73;;;;;;;16.73;69.39;102357.59;7391356;19;20022;-66
2023/10/01 06:55:03;;;;;;;18.25;11.43;;;;;;;16.75;69.65;102347.63;7390442;19;20019;-66
2023/10/01 06:57:33;;;;;;;18.05;11.25;;;;;;;16.78;69.23;102352.72;7389139;19;20511;-66
2023/10/01 07:00:04;;;;;;;14.65;10.38;;;;;;;16.79;69.37;102359.81;7390579;19;20035;-66
2023/10/01 07:02:34;;;;;;;17.35;11.32;;;;;;;16.80;69.34;102353.50;7389986;19;20054;-66
2023/10/01 07:05:02;;;;;;;16.63;11.68;;;;;;;16.75;69.23;102349.44;7389297;19;20026;-64
2023/10/01 07:07:42;;;;;;;17.55;9.75;;;;;;;16.79;69.29;102343.75;7390602;19;20015;-64
2023/10/01 07:10:10;;;;;;;17.63;11.27;;;;;;;16.86;68.99;102345.97;7390034;19;20018;-65
2023/10/01 07:12:53;;;;;;;19.42;11.65;;;;;;;16.87;68.76;102353.03;7391030;19;20106;-66
2023/10/01 07:15:25;;;;;;;16.63;11.40;;;;;;;16.94;68.78;102354.25;7390963;19;20025;-66
2023/10/01 07:17:53;;;;;;;16.10;10.50;;;;;;;17.00;68.52;102356.50;7388509;19;20031;-65
2023/10/01 07:20:24;;;;;;;17.50;11.20;;;;;;;16.98;68.80;102353.94;7389743;19;20026;-65
2023/10/01 07:22:54;;;;;;;17.70;11.70;;;;;;;16.89;69.00;102356.44;7391198;19;20515;-66
2023/10/01 07:25:43;;;;;;;19.05;10.82;;;;;;;16.99;68.61;102354.78;7390271;19;20019;-66
2023/10/01 07:28:13;;;;;;;16.33;10.60;;;;;;;16.98;68.77;102353.94;7394706;19;20035;-66
2023/10/01 07:30:46;;;;;;;18.83;11.43;;;;;;;17.03;68.62;102354.44;7397623;19;20407;-66
2023/10/01 07:33:14;;;;;;;17.75;11.98;;;;;;;17.02;68.78;102359.94;7397887;19;20015;-66
2023/10/01 07:35:44;;;;;;;17.98;12.38;;;;;;;16.97;68.76;102346.88;7396716;19;20018;-66
2023/10/01 07:38:15;;;;;;;16.90;11.10;;;;;;;16.89;69.38;102351.94;7394480;19;20026;-66
2023/10/01 07:40:57;;;;;;;18.92;11.88;;;;;;;17.03;69.00;102358.94;7397569;19;20010;-66
2023/10/01 07:43:26;;;;;;;16.80;11.23;;;;;;;17.11;68.24;102356.53;7397513;19;20014;-66
2023/10/01 07:45:59;;;;;;;17.73;11.80;;;;;;;17.18;68.20;102363.13;7395812;19;20018;-66
2023/10/01 07:48:28;;;;;;;19.98;12.25;;;;;;;17.20;68.80;102371.03;7395465;19;20011;-66
2023/10/01 07:50:56;;;;;;;19.00;11.18;;;;;;;17.16;68.78;102357.03;7396806;19;20018;-66
2023/10/01 07:53:32;;;;;;;17.23;11.60;;;;;;;17.28;68.85;102352.56;7397069;19;20534;-66
2023/10/01 07:56:02;;;;;;;17.17;11.77;;;;;;;17.25;68.96;102351.00;7396072;19;20476;-66
2023/10/01 07:58:45;;;;;;;19.27;12.18;;;;;;;17.25;69.22;102352.81;7393651;19;20015;-66
2023/10/01 08:04:08;;;;;;;19.15;11.90;;;;;;;17.25;69.52;102374.25;7396426;19;20023;-65
2023/10/01 08:06:43;;;;;;;18.70;11.98;;;;;;;17.27;69.61;102367.78;7394778;19;20029;-65
2023/10/01 08:09:13;;;;;;;20.48;11.93;;;;;;;17.25;69.44;102380.44;7394242;19;20018;-64
2023/10/01 08:12:05;;;;;;;21.42;12.30;;;;;;;17.20;69.54;102376.41;7395853;19;20355;-64
2023/10/01 08:14:33;;;;;;;20.15;12.40;;;;;;;16.87;70.82;102374.47;7396637;19;20011;-65
2023/10/01 08:17:03;;;;;;;19.98;11.30;;;;;;;17.08;70.24;102374.66;7394874;19;20019;-63
2023/10/01 08:19:49;;;;;;;20.42;11.55;;;;;;;17.25;70.02;102369.75;7393243;19;20022;-64
2023/10/01 08:22:23;;;;;;;18.25;11.20;;;;;;;17.36;69.81;102365.38;7395527;19;20022;-64
2023/10/01 08:24:51;;;;;;;21.52;11.77;;;;;;;17.41;69.82;102366.75;7395910;19;20018;-64
2023/10/01 08:27:33;;;;;;;18.75;11.45;;;;;;;17.43;69.70;102370.13;7395816;19;20566;-65
2023/10/01 08:30:18;;;;;;;17.20;11.25;;;;;;;17.38;70.03;102368.78;7395166;19;20010;-66
2023/10/01 08:33:11;;;;;;;18.52;11.02;;;;;;;17.43;69.82;102361.25;7395376;19;20015;-66
2023/10/01 08:35:39;;;;;;;19.58;10.95;;;;;;;17.29;70.71;102352.47;7395690;19;20090;-67
2023/10/01 08:38:15;;;;;;;18.20;10.85;;;;;;;17.35;70.84;102361.84;7392114;19;20014;-63
2023/10/01 08:40:43;;;;;;;17.38;11.07;;;;;;;17.37;70.52;102364.41;7395289;19;20026;-65
2023/10/01 08:43:16;;;;;;;19.00;10.82;;;;;;;17.48;70.47;102353.72;7395483;19;20022;-65
2023/10/01 08:45:47;;;;;;;17.52;10.60;;;;;;;17.57;70.33;102354.84;7395351;19;20351;-66
2023/10/01 08:48:17;;;;;;;18.40;10.88;;;;;;;17.68;70.14;102362.91;7392271;19;20014;-65
2023/10/01 08:50:45;;;;;;;17.38;10.73;;;;;;;17.60;70.55;102368.84;7394974;19;20086;-65
2023/10/01 08:53:16;;;;;;;18.15;10.50;;;;;;;17.61;70.51;102361.66;7395293;19;20025;-64
2023/10/01 09:00:52;;;;;;;16.67;9.80;;;;;;;17.76;70.62;102355.97;7395549;19;20113;-66
2023/10/01 09:03:29;;;;;;;17.35;10.32;;;;;;;17.64;71.09;102359.59;7395102;19;20082;-67
2023/10/01 09:06:03;;;;;;;17.83;9.90;;;;;;;17.51;71.54;102353.47;7393249;19;20435;-66
2023/10/01 09:08:42;;;;;;;16.60;9.85;;;;;;;17.56;71.56;102354.00;7393363;19;20051;-66
2023/10/01 09:11:15;;;;;;;17.05;10.00;;;;;;;17.64;71.44;102356.91;7394180;19;20018;-67
2023/10/01 09:14:14;;;;;;;21.90;10.38;;;;;;;17.75;71.59;102354.28;7394225;19;20031;-67
2023/10/01 09:16:44;;;;;;;21.67;10.23;;;;;;;17.71;71.32;102352.78;7393175;19;20018;-67
2023/10/01 09:19:31;;;;;;;16.52;9.93;;;;;;;17.84;71.63;102347.34;7391680;19;20014;-67
2023/10/01 09:27:57;;;;;;;19.93;10.53;;;;;;;17.99;70.39;102337.22;7392769;19;20022;-69
2023/10/01 09:30:26;;;;;;;16.65;9.85;;;;;;;18.02;70.89;102339.66;7393371;19;20014;-70
2023/10/01 09:33:14;;;;;;;17.15;9.75;;;;;;;17.99;70.93;102338.09;7393352;19;20025;-68
2023/10/01 09:35:59;;;;;;;20.33;10.02;;;;;;;17.92;70.80;102349.41;7391550;19;20031;-69
2023/10/01 09:38:28;;;;;;;19.10;9.98;;;;;;;17.87;70.87;102346.25;7391162;19;20078;-69
2023/10/01 09:40:57;;;;;;;17.25;10.02;;;;;;;17.98;70.22;102351.63;7392171;19;20019;-69
2023/10/01 09:43:30;;;;;;;16.40;9.93;;;;;;;18.03;70.22;102350.25;7393367;19;20018;-68
2023/10/01 09:46:00;;;;;;;19.45;10.32;;;;;;;18.10;70.15;102349.78;7392927;19;20017;-68
2023/10/01 09:48:34;;;;;;;19.38;10.68;;;;;;;18.13;70.19;102342.34;7391521;19;20029;-68
2023/10/01 09:51:14;;;;;;;19.05;10.02;;;;;;;18.22;70.04;102344.28;7389734;19;20056;-68
2023/10/01 09:53:48;;;;;;;16.23;9.55;;;;;;;18.19;70.20;102346.34;7392362;19;20026;-68
2023/10/01 09:56:26;;;;;;;19.98;10.57;;;;;;;18.19;70.62;102352.56;7392219;19;20018;-68
2023/10/01 09:58:58;;;;;;;18.27;10.25;;;;;;;18.17;70.82;102340.28;7390666;19;20032;-68
2023/10/01 10:01:31;;;;;;;17.83;10.13;;;;;;;18.15;70.83;102344.91;7392738;19;20585;-68
2023/10/01 10:04:01;;;;;;;21.83;10.77;;;;;;;18.14;70.61;102341.38;7391164;19;20044;-68
2023/10/01 10:06:31;;;;;;;18.63;10.32;;;;;;;18.18;70.53;102334.78;7392642;19;20026;-69
2023/10/01 10:09:04;;;;;;;19.67;10.05;;;;;;;18.20;70.69;102332.84;7389978;19;20022;-69
2023/10/01 10:11:36;;;;;;;17.83;10.20;;;;;;;17.96;71.81;102337.47;7391653;19;20026;-69
2023/10/01 10:14:28;;;;;;;18.35;10.05;;;;;;;18.00;71.60;102339.78;7392312;19;20085;-68
2023/10/01 10:17:19;;;;;;;21.63;10.65;;;;;;;17.99;71.75;102343.44;7391399;19;20015;-68
2023/10/01 10:23:21;;;;;;;19.00;10.32;;;;;;;18.05;72.50;102342.13;7391922;19;20025;-67
2023/10/01 10:25:49;;;;;;;23.08;11.13;;;;;;;18.08;72.26;102346.34;7391622;19;20079;-67
2023/10/01 10:28:29;;;;;;;17.25;9.65;;;;;;;18.21;72.09;102334.53;7390997;19;20460;-68
2023/10/01 10:31:29;;;;;;;17.55;8.75;;;;;;;18.25;72.38;102346.72;7391362;19;20022;-68
2023/10/01 10:37:37;;;;;;;19.58;9.95;;;;;;;18.32;72.96;102338.19;7390033;19;20019;-67
2023/10/01 10:43:01;;;;;;;19.00;9.63;;;;;;;18.21;74.09;102345.25;7391416;19;20015;-67
2023/10/01 10:45:42;;;;;;;17.85;10.05;;;;;;;18.16;74.28;102347.47;7391902;19;20014;-68
2023/10/01 10:48:14;;;;;;;19.30;10.68;;;;;;;17.96;75.49;102338.31;7390027;19;20164;-66
2023/10/01 10:50:49;;;;;;;20.02;9.98;;;;;;;18.06;75.36;102342.97;7390846;19;20029;-66
2023/10/01 10:53:29;;;;;;;18.88;10.32;;;;;;;18.08;75.30;102341.84;7391591;19;20026;-65
2023/10/01 10:56:08;;;;;;;21.90;12.07;;;;;;;18.10;75.08;102349.78;7391049;19;20018;-66
2023/10/01 10:58:44;;;;;;;19.45;10.52;;;;;;;18.03;75.11;102350.25;7388398;19;20022;-66
2023/10/01 11:01:18;;;;;;;19.15;11.73;;;;;;;18.09;74.94;102340.88;7389384;19;20014;-65
2023/10/01 11:03:54;;;;;;;19.65;11.32;;;;;;;18.00;74.90;102333.56;7399169;19;20035;-65
2023/10/01 11:07:01;;;;;;;20.52;10.70;;;;;;;17.97;74.50;102333.81;7398007;19;20018;-65
2023/10/01 11:09:31;;;;;;;17.52;10.10;;;;;;;17.90;74.71;102332.63;7395337;19;20026;-65
2023/10/01 11:11:58;;;;;;;19.48;10.18;;;;;;;18.01;74.42;102329.94;7398472;19;20015;-65
2023/10/01 11:14:26;;;;;;;19.65;9.55;;;;;;;18.22;73.35;102321.97;7397845;19;20043;-65
2023/10/01 11:16:54;;;;;;;20.83;10.68;;;;;;;18.19;73.28;102331.09;7397723;19;20284;-65
2023/10/01 11:19:28;;;;;;;19.63;10.23;;;;;;;18.29;73.40;102328.53;7393589;19;20048;-65
2023/10/01 11:22:00;;;;;;;21.30;9.93;;;;;;;18.36;72.50;102320.88;7397535;19;20415;-64
2023/10/01 11:24:31;;;;;;;18.10;10.27;;;;;;;18.46;72.29;102303.84;7397421;19;20499;-65
2023/10/01 11:27:43;;;;;;;21.55;10.38;;;;;;;18.62;71.75;102311.53;7397736;19;20031;-65
2023/10/01 11:30:24;;;;;;;17.70;8.48;;;;;;;18.51;71.61;102312.41;7396687;19;20018;-65
2023/10/01 11:35:59;;;;;;;15.68;8.75;;;;;;;18.69;71.02;102310.00;7397390;19;20040;-65
2023/10/01 11:38:31;;;;;;;18.55;9.18;;;;;;;18.67;71.25;102305.75;7394048;19;20353;-65
2023/10/01 11:41:13;;;;;;;17.05;9.77;;;;;;;18.68;70.45;102304.78;7397449;19;20093;-65
2023/10/01 11:44:02;;;;;;;17.80;8.60;;;;;;;18.69;70.14;102293.91;7397076;19;20022;-65
2023/10/01 11:46:32;;;;;;;17.35;9.82;;;;;;;18.70;70.22;102292.97;7397492;19;20020;-65
2023/10/01 11:49:06;;;;;;;15.40;8.52;;;;;;;18.93;69.72;102291.03;7394619;19;20048;-65
2023/10/01 11:51:45;;;;;;;14.38;7.82;;;;;;;19.08;69.10;102288.88;7395464;19;20022;-65
2023/10/01 11:54:17;;;;;;;16.63;8.50;;;;;;;19.05;69.23;102290.97;7396631;19;20390;-65
2023/10/01 11:56:45;;;;;;;15.70;8.60;;;;;;;18.95;69.90;102296.25;7396344;19;20026;-65
2023/10/01 11:59:20;;;;;;;17.10;8.63;;;;;;;18.97;69.68;102297.84;7393019;19;20516;-67
2023/10/01 12:01:53;;;;;;;17.30;8.30;;;;;;;18.91;69.79;102300.19;7396880;19;20029;-66
2023/10/01 12:04:43;;;;;;;16.27;7.65;;;;;;;18.96;69.41;102300.66;7396633;19;20022;-66
2023/10/01 12:07:17;;;;;;;17.23;8.40;;;;;;;18.89;69.25;102292.28;7396602;19;20022;-66
2023/10/01 12:09:50;;;;;;;15.43;7.95;;;;;;;18.90;69.16;102295.81;7393107;19;20019;-66
2023/10/01 12:12:19;;;;;;;16.20;8.20;;;;;;;18.95;69.14;102289.06;7395457;19;20074;-66
2023/10/01 12:15:33;;;;;;;15.60;8.15;;;;;;;19.04;69.03;102279.41;7393794;19;20026;-66
2023/10/01 12:17:45;;;;;;;16.90;8.73;;;;;;;19.07;68.56;102270.19;7393121;19;20041;-65
2023/10/01 12:20:22;;;;;;;16.20;7.60;;;;;;;19.25;68.23;102255.19;7395495;19;20043;-68
2023/10/01 12:23:08;;;;;;;19.63;8.25;;;;;;;19.29;68.29;102242.34;7397142;19;20032;-67
2023/10/01 12:28:28;;;;;;;13.18;7.15;;;;;;;19.43;67.81;102242.84;7395438;19;20018;-66